Time;durP1;ratioP1;P1;durP2;ratioP2;P2;SDS_P1;SDS_P2;PMS_P1;PMS_P2;Temp;Humidity;BMP_temperature;BMP_pressure;BME280_temperature;BME280_humidity;BME280_pressure;Samples;Min_cycle;Max_cycle;Signal;HPM_P1;HPM_P2
2021/08/19 00:01:25;;;;;;;10.48;3.92;;;;;;;;;;5035997;28;20362;-64
2021/08/19 00:03:51;;;;;;;10.93;4.38;;;;;;;;;;5041878;28;20031;-64
2021/08/19 00:06:17;;;;;;;6.82;3.95;;;;;;;;;;5045411;28;20037;-63
2021/08/19 00:08:43;;;;;;;9.48;4.10;;;;;;;;;;5044637;28;20040;-63
2021/08/19 00:11:10;;;;;;;8.35;4.38;;;;;;;;;;5044648;28;20036;-63
2021/08/19 00:13:36;;;;;;;10.82;4.30;;;;;;;;;;5035688;28;20030;-63
2021/08/19 00:16:02;;;;;;;7.03;4.13;;;;;;;;;;5038941;28;20032;-64
2021/08/19 00:18:28;;;;;;;7.55;3.85;;;;;;;;;;5030791;28;20029;-63
2021/08/19 00:20:54;;;;;;;7.22;4.10;;;;;;;;;;5039717;28;20029;-63
2021/08/19 00:23:20;;;;;;;8.88;3.97;;;;;;;;;;5031955;28;20057;-64
2021/08/19 00:25:46;;;;;;;8.93;3.97;;;;;;;;;;5034193;28;20089;-64
2021/08/19 00:28:12;;;;;;;8.48;4.30;;;;;;;;;;5030728;28;20028;-64
2021/08/19 00:30:39;;;;;;;8.18;4.28;;;;;;;;;;5034391;28;20034;-64
2021/08/19 00:33:05;;;;;;;8.45;4.43;;;;;;;;;;5033436;28;20021;-63
2021/08/19 00:35:31;;;;;;;6.85;4.00;;;;;;;;;;5045116;28;20543;-63
2021/08/19 00:37:57;;;;;;;11.23;4.35;;;;;;;;;;5021446;28;20521;-64
2021/08/19 00:40:23;;;;;;;7.55;4.38;;;;;;;;;;5030966;28;20033;-64
2021/08/19 00:42:49;;;;;;;8.10;4.22;;;;;;;;;;5032552;28;20060;-64
2021/08/19 00:45:15;;;;;;;9.38;4.05;;;;;;;;;;5036915;28;20044;-64
2021/08/19 00:47:41;;;;;;;12.18;5.60;;;;;;;;;;5026166;28;20030;-63
2021/08/19 00:50:08;;;;;;;8.43;4.45;;;;;;;;;;5045241;28;20107;-63
2021/08/19 00:52:35;;;;;;;9.45;4.32;;;;;;;;;;5037745;28;20096;-63
2021/08/19 00:55:01;;;;;;;7.93;4.27;;;;;;;;;;5042349;28;20025;-63
2021/08/19 00:57:27;;;;;;;10.88;4.35;;;;;;;;;;5030352;28;20083;-63
2021/08/19 00:59:53;;;;;;;8.95;3.92;;;;;;;;;;5045645;28;20022;-63
2021/08/19 01:02:22;;;;;;;8.32;4.30;;;;;;;;;;5045413;28;20102;-63
2021/08/19 01:04:49;;;;;;;8.85;4.32;;;;;;;;;;5033694;28;20037;-63
2021/08/19 01:07:15;;;;;;;12.18;4.28;;;;;;;;;;5035299;28;20022;-63
2021/08/19 01:09:41;;;;;;;8.88;4.25;;;;;;;;;;5042642;28;20175;-63
2021/08/19 01:12:09;;;;;;;14.90;3.95;;;;;;;;;;5033041;28;20025;-63
2021/08/19 01:14:35;;;;;;;;;;;;;;;;;;5041000;28;20020;-63
2021/08/19 01:17:08;;;;;;;9.23;4.10;;;;;;;;;;5028186;28;19916;-63
2021/08/19 01:19:35;;;;;;;8.43;4.18;;;;;;;;;;5033823;28;20029;-63
2021/08/19 01:22:01;;;;;;;9.10;4.20;;;;;;;;;;5034219;28;20104;-63
2021/08/19 01:24:27;;;;;;;7.65;4.50;;;;;;;;;;5035826;28;20116;-63
2021/08/19 01:26:54;;;;;;;6.90;3.80;;;;;;;;;;5031360;28;20028;-63
2021/08/19 01:29:20;;;;;;;9.95;3.95;;;;;;;;;;5044378;28;20013;-63
2021/08/19 01:31:56;;;;;;;8.85;4.20;;;;;;;;;;5034587;28;20714;-63
2021/08/19 01:34:22;;;;;;;13.30;4.90;;;;;;;;;;5039589;28;20564;-63
2021/08/19 01:36:48;;;;;;;8.60;4.07;;;;;;;;;;5038087;28;20065;-63
2021/08/19 01:39:14;;;;;;;8.15;4.30;;;;;;;;;;5022809;28;20028;-64
2021/08/19 01:41:40;;;;;;;12.82;5.53;;;;;;;;;;5031962;28;20037;-64
2021/08/19 01:44:06;;;;;;;10.43;4.55;;;;;;;;;;5035516;28;20025;-64
2021/08/19 01:46:32;;;;;;;9.57;4.38;;;;;;;;;;5034226;28;20053;-64
2021/08/19 01:48:58;;;;;;;11.98;4.32;;;;;;;;;;5039161;28;20025;-63
2021/08/19 01:51:24;;;;;;;8.20;4.13;;;;;;;;;;5036928;28;20079;-63
2021/08/19 01:53:50;;;;;;;7.95;4.30;;;;;;;;;;5050628;28;20481;-63
2021/08/19 01:56:18;;;;;;;8.90;4.45;;;;;;;;;;5041999;28;20036;-63
2021/08/19 01:58:44;;;;;;;10.43;4.63;;;;;;;;;;5037905;28;20029;-64
2021/08/19 02:01:10;;;;;;;8.23;4.43;;;;;;;;;;5038052;28;20083;-63
2021/08/19 02:03:36;;;;;;;9.68;4.68;;;;;;;;;;5040471;28;20577;-63
2021/08/19 02:06:02;;;;;;;12.63;4.35;;;;;;;;;;5050941;28;20033;-63
2021/08/19 02:08:28;;;;;;;8.25;3.90;;;;;;;;;;5020988;28;20021;-63
2021/08/19 02:10:54;;;;;;;8.85;4.25;;;;;;;;;;5042750;28;20029;-63
2021/08/19 02:13:20;;;;;;;10.75;4.22;;;;;;;;;;5040261;28;20105;-63
2021/08/19 02:15:46;;;;;;;8.90;3.97;;;;;;;;;;5041329;28;20110;-63
2021/08/19 02:18:12;;;;;;;7.00;4.05;;;;;;;;;;5037320;28;20056;-63
2021/08/19 02:20:37;;;;;;;7.80;4.00;;;;;;;;;;5034917;28;20502;-63
2021/08/19 02:23:04;;;;;;;7.90;4.00;;;;;;;;;;5047085;28;20033;-63
2021/08/19 02:25:30;;;;;;;10.80;4.55;;;;;;;;;;5037443;28;20600;-63
2021/08/19 02:27:56;;;;;;;10.35;4.50;;;;;;;;;;5040312;28;20071;-63
2021/08/19 02:30:22;;;;;;;9.55;4.70;;;;;;;;;;5036894;28;20030;-63
2021/08/19 02:32:58;;;;;;;10.70;4.32;;;;;;;;;;5035118;28;20060;-63
2021/08/19 02:35:25;;;;;;;12.63;4.55;;;;;;;;;;5042409;28;20025;-64
2021/08/19 02:37:51;;;;;;;10.85;3.90;;;;;;;;;;5028020;28;20060;-64
2021/08/19 02:40:17;;;;;;;7.43;3.80;;;;;;;;;;5038876;28;20045;-63
2021/08/19 02:42:43;;;;;;;9.82;4.22;;;;;;;;;;5034626;28;20021;-63
2021/08/19 02:45:09;;;;;;;9.30;4.45;;;;;;;;;;5038267;28;20108;-64
2021/08/19 02:47:35;;;;;;;9.23;4.45;;;;;;;;;;5037512;28;20028;-64
2021/08/19 02:50:01;;;;;;;8.05;4.10;;;;;;;;;;5031990;28;20029;-64
2021/08/19 02:52:27;;;;;;;7.10;3.80;;;;;;;;;;5041401;28;20104;-63
2021/08/19 02:54:53;;;;;;;8.90;4.78;;;;;;;;;;5044381;28;20416;-64
2021/08/19 02:57:19;;;;;;;9.45;4.35;;;;;;;;;;5042746;28;20061;-63
2021/08/19 02:59:45;;;;;;;10.23;4.68;;;;;;;;;;5034969;28;20493;-64
2021/08/19 03:02:11;;;;;;;10.75;4.20;;;;;;;;;;5035733;28;20048;-64
2021/08/19 03:04:37;;;;;;;10.13;4.47;;;;;;;;;;5035013;28;20034;-64
2021/08/19 03:07:03;;;;;;;8.68;4.75;;;;;;;;;;5037939;28;20097;-64
2021/08/19 03:09:29;;;;;;;8.30;4.53;;;;;;;;;;5042409;28;20026;-64
2021/08/19 03:11:55;;;;;;;12.02;5.18;;;;;;;;;;5046217;28;20053;-64
2021/08/19 03:14:21;;;;;;;8.85;4.47;;;;;;;;;;5050060;28;20057;-63
2021/08/19 03:16:47;;;;;;;11.88;4.38;;;;;;;;;;5034430;28;20508;-63
2021/08/19 03:19:13;;;;;;;8.75;4.55;;;;;;;;;;5035169;28;20021;-63
2021/08/19 03:21:39;;;;;;;11.32;4.35;;;;;;;;;;5044821;28;20504;-63
2021/08/19 03:24:05;;;;;;;8.57;4.53;;;;;;;;;;5042951;28;20018;-63
2021/08/19 03:26:32;;;;;;;9.52;4.65;;;;;;;;;;5033488;28;20099;-63
2021/08/19 03:28:58;;;;;;;7.20;4.00;;;;;;;;;;5029007;28;20527;-63
2021/08/19 03:31:27;;;;;;;8.68;4.50;;;;;;;;;;5034108;28;20114;-64
2021/08/19 03:33:54;;;;;;;9.05;4.38;;;;;;;;;;5033764;28;20067;-63
2021/08/19 03:36:20;;;;;;;11.13;4.45;;;;;;;;;;5035097;28;20021;-64
2021/08/19 03:38:46;;;;;;;9.70;4.75;;;;;;;;;;5019694;28;20385;-63
2021/08/19 03:41:12;;;;;;;8.20;3.97;;;;;;;;;;5032894;28;20080;-63
2021/08/19 03:43:39;;;;;;;9.95;4.68;;;;;;;;;;5033830;28;20067;-63
2021/08/19 03:46:05;;;;;;;8.68;4.72;;;;;;;;;;5033272;28;20044;-63
2021/08/19 03:48:31;;;;;;;8.63;4.15;;;;;;;;;;5032674;28;20036;-63
2021/08/19 03:50:58;;;;;;;7.88;4.32;;;;;;;;;;5034276;28;20071;-63
2021/08/19 03:53:24;;;;;;;11.68;5.47;;;;;;;;;;5036374;28;20025;-64
2021/08/19 03:55:50;;;;;;;9.80;5.05;;;;;;;;;;5035475;28;20100;-64
2021/08/19 03:58:16;;;;;;;9.23;4.78;;;;;;;;;;5032669;28;20557;-64
2021/08/19 04:00:42;;;;;;;11.57;4.93;;;;;;;;;;5035962;28;20029;-63
2021/08/19 04:03:08;;;;;;;10.32;4.70;;;;;;;;;;5040687;28;20017;-63
2021/08/19 04:05:34;;;;;;;9.95;4.20;;;;;;;;;;5032659;28;20037;-64
2021/08/19 04:08:00;;;;;;;8.63;4.18;;;;;;;;;;5020941;28;20056;-64
2021/08/19 04:10:26;;;;;;;9.10;4.72;;;;;;;;;;5031261;28;20438;-63
2021/08/19 04:12:52;;;;;;;9.57;4.10;;;;;;;;;;5034572;28;20093;-63
2021/08/19 04:15:18;;;;;;;9.07;5.07;;;;;;;;;;5039667;28;20067;-63
2021/08/19 04:17:44;;;;;;;11.38;4.90;;;;;;;;;;5033737;28;20083;-63
2021/08/19 04:20:10;;;;;;;9.68;4.55;;;;;;;;;;5031948;28;20033;-64
2021/08/19 04:22:36;;;;;;;9.50;4.70;;;;;;;;;;5042606;28;20025;-63
2021/08/19 04:25:02;;;;;;;9.82;4.80;;;;;;;;;;5038769;28;20555;-65
2021/08/19 04:27:28;;;;;;;12.70;5.30;;;;;;;;;;5030504;28;20116;-62
2021/08/19 04:29:54;;;;;;;10.60;5.38;;;;;;;;;;5045994;28;20140;-65
2021/08/19 04:32:20;;;;;;;13.40;5.63;;;;;;;;;;5036769;28;20384;-65
2021/08/19 04:34:46;;;;;;;10.57;4.72;;;;;;;;;;5040801;28;20029;-65
2021/08/19 04:37:12;;;;;;;8.68;4.75;;;;;;;;;;5031684;28;20025;-65
2021/08/19 04:39:38;;;;;;;11.15;4.82;;;;;;;;;;5031526;28;20043;-62
2021/08/19 04:42:04;;;;;;;11.88;4.97;;;;;;;;;;5032781;28;20072;-65
2021/08/19 04:44:30;;;;;;;9.68;4.80;;;;;;;;;;5040926;28;20025;-62
2021/08/19 04:46:56;;;;;;;8.98;4.72;;;;;;;;;;5037905;28;20033;-64
2021/08/19 04:49:23;;;;;;;10.32;4.72;;;;;;;;;;5032408;28;20025;-65
2021/08/19 04:51:49;;;;;;;10.68;5.05;;;;;;;;;;5041773;28;20490;-64
2021/08/19 04:54:15;;;;;;;10.60;5.20;;;;;;;;;;5032121;28;20361;-64
2021/08/19 04:56:41;;;;;;;9.38;4.95;;;;;;;;;;5031414;28;20022;-65
2021/08/19 04:59:08;;;;;;;8.07;4.85;;;;;;;;;;5040167;28;20399;-64
2021/08/19 05:01:36;;;;;;;8.30;4.57;;;;;;;;;;5033040;28;20030;-64
2021/08/19 05:04:02;;;;;;;11.32;4.55;;;;;;;;;;5036560;28;20025;-64
2021/08/19 05:06:29;;;;;;;9.32;4.75;;;;;;;;;;5033014;28;20041;-65
2021/08/19 05:08:55;;;;;;;9.85;4.63;;;;;;;;;;5031201;28;20036;-65
2021/08/19 05:11:24;;;;;;;7.30;4.20;;;;;;;;;;5032858;28;20342;-64
2021/08/19 05:13:51;;;;;;;9.20;4.40;;;;;;;;;;5034746;28;20017;-64
2021/08/19 05:16:17;;;;;;;8.57;4.20;;;;;;;;;;5032021;28;20037;-64
2021/08/19 05:18:43;;;;;;;10.77;5.38;;;;;;;;;;5027737;28;20053;-64
2021/08/19 05:21:10;;;;;;;11.93;5.30;;;;;;;;;;5035586;28;20028;-65
2021/08/19 05:23:36;;;;;;;9.57;4.55;;;;;;;;;;5030728;28;20108;-64
2021/08/19 05:26:02;;;;;;;9.50;4.80;;;;;;;;;;5033175;28;20528;-64
2021/08/19 05:28:28;;;;;;;9.02;4.53;;;;;;;;;;5029639;28;20028;-64
2021/08/19 05:30:54;;;;;;;11.15;5.18;;;;;;;;;;5033452;28;20029;-60
2021/08/19 05:33:21;;;;;;;10.65;4.93;;;;;;;;;;5031888;28;20482;-63
2021/08/19 05:35:47;;;;;;;9.85;5.00;;;;;;;;;;5047389;28;20169;-60
2021/08/19 05:38:13;;;;;;;9.07;4.75;;;;;;;;;;5018882;28;20550;-60
2021/08/19 05:40:39;;;;;;;9.98;4.53;;;;;;;;;;5034490;28;20041;-60
2021/08/19 05:43:06;;;;;;;9.35;4.55;;;;;;;;;;5035961;28;20021;-60
2021/08/19 05:45:32;;;;;;;9.60;4.73;;;;;;;;;;5042637;28;20340;-60
2021/08/19 05:47:58;;;;;;;8.00;4.70;;;;;;;;;;5025905;28;20047;-60
2021/08/19 05:50:24;;;;;;;8.90;4.78;;;;;;;;;;5032306;28;20425;-60
2021/08/19 05:52:50;;;;;;;7.93;4.55;;;;;;;;;;5036580;28;20057;-60
2021/08/19 05:55:16;;;;;;;10.98;5.03;;;;;;;;;;5040144;28;20025;-60
2021/08/19 05:57:43;;;;;;;9.63;4.55;;;;;;;;;;5039391;28;20029;-60
2021/08/19 06:00:10;;;;;;;13.90;5.40;;;;;;;;;;5044441;28;20021;-59
2021/08/19 06:02:36;;;;;;;10.95;5.28;;;;;;;;;;5043409;28;20113;-59
2021/08/19 06:05:02;;;;;;;11.48;4.80;;;;;;;;;;5040279;28;20104;-58
2021/08/19 06:07:28;;;;;;;13.68;5.10;;;;;;;;;;5029021;28;20088;-58
2021/08/19 06:09:54;;;;;;;12.38;4.65;;;;;;;;;;5023657;28;20389;-59
2021/08/19 06:12:19;;;;;;;8.43;4.45;;;;;;;;;;5031457;28;20152;-58
2021/08/19 06:14:45;;;;;;;11.65;4.68;;;;;;;;;;5037403;28;20164;-59
2021/08/19 06:17:11;;;;;;;10.15;4.82;;;;;;;;;;5031497;28;20022;-58
2021/08/19 06:19:37;;;;;;;12.45;5.05;;;;;;;;;;5029339;28;20523;-59
2021/08/19 06:22:04;;;;;;;11.15;5.03;;;;;;;;;;5032964;28;20029;-59
2021/08/19 06:24:31;;;;;;;10.15;5.68;;;;;;;;;;5034133;28;20038;-60
2021/08/19 06:26:57;;;;;;;11.38;4.88;;;;;;;;;;5032228;28;20052;-60
2021/08/19 06:29:23;;;;;;;11.60;5.45;;;;;;;;;;5039067;28;20104;-59
2021/08/19 06:31:48;;;;;;;8.07;4.65;;;;;;;;;;5030036;28;20505;-59
2021/08/19 06:34:14;;;;;;;9.50;4.82;;;;;;;;;;5034833;28;20432;-59
2021/08/19 06:36:40;;;;;;;12.00;4.97;;;;;;;;;;5035869;28;20027;-59
2021/08/19 06:39:06;;;;;;;9.77;4.50;;;;;;;;;;5020914;28;20110;-59
2021/08/19 06:41:32;;;;;;;9.35;4.80;;;;;;;;;;5034021;28;20075;-61
2021/08/19 06:43:58;;;;;;;12.35;4.70;;;;;;;;;;5035741;28;20030;-59
2021/08/19 06:46:24;;;;;;;11.85;5.00;;;;;;;;;;5036145;28;20066;-60
2021/08/19 06:48:50;;;;;;;7.72;4.40;;;;;;;;;;5029970;28;20064;-59
2021/08/19 06:51:16;;;;;;;10.45;5.05;;;;;;;;;;5034243;28;20048;-59
2021/08/19 06:53:43;;;;;;;7.85;4.55;;;;;;;;;;5033901;28;20092;-59
2021/08/19 06:56:09;;;;;;;10.38;5.10;;;;;;;;;;5033983;28;20112;-59
2021/08/19 06:58:34;;;;;;;11.18;4.40;;;;;;;;;;5032699;28;20056;-59
2021/08/19 07:01:00;;;;;;;8.07;4.40;;;;;;;;;;5034366;28;20029;-60
2021/08/19 07:03:27;;;;;;;10.93;4.93;;;;;;;;;;5035460;28;20029;-60
2021/08/19 07:05:53;;;;;;;11.73;4.53;;;;;;;;;;5048625;28;20134;-59
2021/08/19 07:08:19;;;;;;;9.25;4.43;;;;;;;;;;5033520;28;20021;-59
2021/08/19 07:10:45;;;;;;;10.05;4.85;;;;;;;;;;5035668;28;20084;-60
2021/08/19 07:13:12;;;;;;;9.20;4.75;;;;;;;;;;5034153;28;20041;-60
2021/08/19 07:15:39;;;;;;;7.30;4.35;;;;;;;;;;5033660;28;20029;-60
2021/08/19 07:18:05;;;;;;;10.38;4.45;;;;;;;;;;5033148;28;20112;-60
2021/08/19 07:20:31;;;;;;;10.70;3.90;;;;;;;;;;5033304;28;20168;-60
2021/08/19 07:22:57;;;;;;;4.72;2.17;;;;;;;;;;5034776;28;20026;-60
2021/08/19 07:25:23;;;;;;;6.65;2.30;;;;;;;;;;5033744;28;20045;-59
2021/08/19 07:27:50;;;;;;;4.93;2.30;;;;;;;;;;5035248;28;20038;-58
2021/08/19 07:30:17;;;;;;;5.15;2.55;;;;;;;;;;5033881;28;20022;-60
2021/08/19 07:32:43;;;;;;;3.67;2.17;;;;;;;;;;5034005;28;20044;-60
2021/08/19 07:35:09;;;;;;;3.80;2.33;;;;;;;;;;5032642;28;20029;-60
2021/08/19 07:37:57;;;;;;;3.90;1.90;;;;;;;;;;5039760;28;20032;-59
2021/08/19 07:40:26;;;;;;;4.15;2.42;;;;;;;;;;5044212;28;20043;-60
2021/08/19 07:42:52;;;;;;;5.35;1.83;;;;;;;;;;5042869;28;20124;-60
2021/08/19 07:45:19;;;;;;;5.00;2.10;;;;;;;;;;5047283;28;20029;-59
2021/08/19 07:47:45;;;;;;;4.80;1.70;;;;;;;;;;5031098;28;20057;-59
2021/08/19 07:50:12;;;;;;;2.45;1.50;;;;;;;;;;5043380;28;20448;-59
2021/08/19 07:52:38;;;;;;;3.35;1.63;;;;;;;;;;5038812;28;20471;-59
2021/08/19 07:55:08;;;;;;;3.70;2.10;;;;;;;;;;5039247;28;20026;-59
2021/08/19 07:57:44;;;;;;;4.70;1.98;;;;;;;;;;5035881;28;20135;-59
2021/08/19 08:00:11;;;;;;;3.17;1.77;;;;;;;;;;5026895;28;20029;-59
2021/08/19 08:02:37;;;;;;;4.32;1.88;;;;;;;;;;5034118;28;20032;-59
2021/08/19 08:05:03;;;;;;;6.80;1.92;;;;;;;;;;5031863;28;20029;-60
2021/08/19 08:07:30;;;;;;;3.00;1.85;;;;;;;;;;5035483;28;20124;-60
2021/08/19 08:09:56;;;;;;;4.00;2.00;;;;;;;;;;5042756;28;20480;-60
2021/08/19 08:12:22;;;;;;;5.32;2.33;;;;;;;;;;5041472;28;20063;-59
2021/08/19 08:14:48;;;;;;;5.60;1.77;;;;;;;;;;5043447;28;20879;-59
2021/08/19 08:17:15;;;;;;;2.67;1.48;;;;;;;;;;5029101;28;20109;-59
2021/08/19 08:19:41;;;;;;;4.38;1.70;;;;;;;;;;5043967;28;20028;-60
2021/08/19 08:22:07;;;;;;;2.22;1.27;;;;;;;;;;5041619;28;20083;-59
2021/08/19 08:24:33;;;;;;;4.13;1.80;;;;;;;;;;5040773;28;20525;-59
2021/08/19 08:26:59;;;;;;;2.42;1.50;;;;;;;;;;5031183;28;20046;-60
2021/08/19 08:29:25;;;;;;;2.88;1.63;;;;;;;;;;5046615;28;20105;-61
2021/08/19 08:31:51;;;;;;;7.25;1.90;;;;;;;;;;5032330;28;20045;-60
2021/08/19 08:34:17;;;;;;;3.40;1.48;;;;;;;;;;5032902;28;20068;-60
2021/08/19 08:36:44;;;;;;;6.03;1.70;;;;;;;;;;5033333;28;20044;-61
2021/08/19 08:39:10;;;;;;;2.38;1.25;;;;;;;;;;5040591;28;20024;-60
2021/08/19 08:41:39;;;;;;;4.55;1.80;;;;;;;;;;5033017;28;20046;-59
2021/08/19 08:44:05;;;;;;;4.10;1.42;;;;;;;;;;5036880;28;20017;-59
2021/08/19 08:46:33;;;;;;;5.53;2.05;;;;;;;;;;5040451;28;20044;-59
2021/08/19 08:48:59;;;;;;;3.58;1.80;;;;;;;;;;5033469;28;20024;-65
2021/08/19 08:51:26;;;;;;;6.65;1.95;;;;;;;;;;5044609;28;20502;-65
2021/08/19 08:53:52;;;;;;;1.88;1.33;;;;;;;;;;5038523;28;20025;-65
2021/08/19 08:56:18;;;;;;;5.03;1.67;;;;;;;;;;5042826;28;20167;-65
2021/08/19 08:58:44;;;;;;;2.45;1.25;;;;;;;;;;5031447;28;20033;-67
2021/08/19 09:01:10;;;;;;;2.63;1.27;;;;;;;;;;5037494;28;20466;-65
2021/08/19 09:03:36;;;;;;;2.65;1.80;;;;;;;;;;5042002;28;20040;-65
2021/08/19 09:06:02;;;;;;;2.53;1.45;;;;;;;;;;5038023;28;20037;-65
2021/08/19 09:08:29;;;;;;;12.73;2.28;;;;;;;;;;5036579;28;20056;-65
2021/08/19 09:10:56;;;;;;;8.33;4.03;;;;;;;;;;5032388;28;20036;-65
2021/08/19 09:13:26;;;;;;;7.43;4.15;;;;;;;;;;5033719;28;20075;-65
2021/08/19 09:15:52;;;;;;;9.13;3.85;;;;;;;;;;5033095;28;20536;-65
2021/08/19 09:18:32;;;;;;;9.40;4.53;;;;;;;;;;5028051;28;20018;-65
2021/08/19 09:20:58;;;;;;;7.22;3.90;;;;;;;;;;5018630;28;20029;-65
2021/08/19 09:23:24;;;;;;;9.38;3.97;;;;;;;;;;5046089;28;20028;-65
2021/08/19 09:25:50;;;;;;;57.55;7.35;;;;;;;;;;5034516;28;20045;-65
2021/08/19 09:28:16;;;;;;;5.70;2.83;;;;;;;;;;5040449;28;20451;-65
2021/08/19 09:30:43;;;;;;;2.97;1.80;;;;;;;;;;5040771;28;20041;-66
2021/08/19 09:33:10;;;;;;;3.58;2.00;;;;;;;;;;5031644;28;20484;-65
2021/08/19 09:35:36;;;;;;;3.22;1.95;;;;;;;;;;5030516;28;20017;-66
2021/08/19 09:38:10;;;;;;;5.10;1.92;;;;;;;;;;5026825;28;20536;-65
2021/08/19 09:40:36;;;;;;;3.67;1.45;;;;;;;;;;5032435;28;20452;-65
2021/08/19 09:43:02;;;;;;;5.75;1.88;;;;;;;;;;5034070;28;20105;-66
2021/08/19 09:45:28;;;;;;;5.97;1.92;;;;;;;;;;5034696;28;20044;-66
2021/08/19 09:48:06;;;;;;;3.40;1.90;;;;;;;;;;5035323;28;20033;-65
2021/08/19 09:50:33;;;;;;;6.93;1.50;;;;;;;;;;5031275;28;20473;-64
2021/08/19 09:53:13;;;;;;;4.90;1.70;;;;;;;;;;5032200;28;20032;-64
2021/08/19 09:55:42;;;;;;;4.88;1.60;;;;;;;;;;5031867;28;20031;-64
2021/08/19 09:58:08;;;;;;;3.45;1.70;;;;;;;;;;5032778;28;20084;-64
2021/08/19 10:00:42;;;;;;;2.42;1.38;;;;;;;;;;5033928;28;20033;-64
2021/08/19 10:03:10;;;;;;;2.83;1.75;;;;;;;;;;5031144;28;20493;-65
2021/08/19 10:05:37;;;;;;;35.95;32.95;;;;;;;;;;5031903;28;20038;-63
2021/08/19 10:08:03;;;;;;;5.22;2.92;;;;;;;;;;5029543;28;20013;-63
2021/08/19 10:10:30;;;;;;;4.97;2.85;;;;;;;;;;5035600;28;20029;-63
2021/08/19 10:12:58;;;;;;;91.15;9.77;;;;;;;;;;5034806;28;20021;-63
2021/08/19 10:15:24;;;;;;;5.10;2.72;;;;;;;;;;5035051;28;20049;-63
2021/08/19 10:17:58;;;;;;;5.53;2.78;;;;;;;;;;5033808;28;20036;-64
2021/08/19 10:20:33;;;;;;;4.05;2.40;;;;;;;;;;5033214;28;20415;-63
2021/08/19 10:23:01;;;;;;;36.17;8.25;;;;;;;;;;5034710;28;20472;-63
2021/08/19 10:25:27;;;;;;;36.80;4.15;;;;;;;;;;5034314;28;20052;-63
2021/08/19 10:28:12;;;;;;;7.20;4.10;;;;;;;;;;5032833;28;20496;-63
2021/08/19 10:30:45;;;;;;;6.93;2.90;;;;;;;;;;5032445;28;20482;-63
2021/08/19 10:33:31;;;;;;;18.48;4.32;;;;;;;;;;5038734;28;20029;-63
2021/08/19 10:35:57;;;;;;;5.60;1.70;;;;;;;;;;5034378;28;20029;-64
2021/08/19 10:38:26;;;;;;;3.65;1.60;;;;;;;;;;5034204;28;20519;-64
2021/08/19 10:40:52;;;;;;;4.57;1.60;;;;;;;;;;5030340;28;20025;-64
2021/08/19 10:43:31;;;;;;;3.15;1.20;;;;;;;;;;5034600;28;20075;-64
2021/08/19 10:46:04;;;;;;;2.70;1.23;;;;;;;;;;5034591;28;20060;-63
2021/08/19 10:48:41;;;;;;;2.03;1.23;;;;;;;;;;5033030;28;20099;-63
2021/08/19 10:51:11;;;;;;;2.25;1.20;;;;;;;;;;5032288;28;20112;-64
2021/08/19 10:53:37;;;;;;;2.30;1.20;;;;;;;;;;5032397;28;20025;-64
2021/08/19 10:56:03;;;;;;;2.75;1.42;;;;;;;;;;5033327;28;20106;-64
2021/08/19 10:58:33;;;;;;;2.47;1.30;;;;;;;;;;5033992;28;20323;-64
2021/08/19 11:01:02;;;;;;;2.75;1.48;;;;;;;;;;5034804;28;20040;-63
2021/08/19 11:03:37;;;;;;;3.30;1.30;;;;;;;;;;5033857;28;20104;-62
2021/08/19 11:06:04;;;;;;;2.15;1.20;;;;;;;;;;5034751;28;20033;-63
2021/08/19 11:08:37;;;;;;;3.88;1.60;;;;;;;;;;5033154;28;20022;-64
2021/08/19 11:11:03;;;;;;;3.03;1.40;;;;;;;;;;5032872;28;20079;-63
2021/08/19 11:13:31;;;;;;;3.25;1.50;;;;;;;;;;5033950;28;20033;-65
2021/08/19 11:15:58;;;;;;;58.83;4.68;;;;;;;;;;5031454;28;20029;-64
2021/08/19 11:18:28;;;;;;;4.72;1.60;;;;;;;;;;5034178;28;20060;-63
2021/08/19 11:20:54;;;;;;;2.78;1.38;;;;;;;;;;5032861;28;20503;-63
2021/08/19 11:23:26;;;;;;;3.28;1.63;;;;;;;;;;5033177;28;20026;-64
2021/08/19 11:25:52;;;;;;;2.63;1.42;;;;;;;;;;5033418;28;20084;-64
2021/08/19 11:28:19;;;;;;;3.42;1.75;;;;;;;;;;5033383;28;20026;-63
2021/08/19 11:30:47;;;;;;;2.60;1.50;;;;;;;;;;5033300;28;20069;-64
2021/08/19 11:33:20;;;;;;;4.00;1.50;;;;;;;;;;5033329;28;20057;-64
2021/08/19 11:35:47;;;;;;;3.47;1.38;;;;;;;;;;5037000;28;20079;-65
2021/08/19 11:38:13;;;;;;;;;;;;;;;;;;5031873;28;20025;-64
2021/08/19 11:40:40;;;;;;;4.07;1.58;;;;;;;;;;5034573;28;19915;-65
2021/08/19 11:43:24;;;;;;;4.40;1.52;;;;;;;;;;5034607;28;20026;-64
2021/08/19 11:45:51;;;;;;;3.30;1.42;;;;;;;;;;5034220;28;20038;-63
2021/08/19 11:48:19;;;;;;;2.83;1.38;;;;;;;;;;5034287;28;20030;-63
2021/08/19 11:50:45;;;;;;;2.97;1.27;;;;;;;;;;5033110;28;20114;-63
2021/08/19 11:53:14;;;;;;;2.95;1.20;;;;;;;;;;5027052;28;20040;-63
2021/08/19 11:55:40;;;;;;;1.73;1.20;;;;;;;;;;5032724;28;20032;-63
2021/08/19 11:58:15;;;;;;;3.88;1.50;;;;;;;;;;5032431;28;20037;-64
2021/08/19 12:01:06;;;;;;;4.53;1.58;;;;;;;;;;5033928;28;20025;-62
2021/08/19 12:03:33;;;;;;;3.00;1.45;;;;;;;;;;5024422;28;20029;-64
2021/08/19 12:06:09;;;;;;;3.83;1.55;;;;;;;;;;5025188;28;20366;-64
2021/08/19 12:08:36;;;;;;;3.90;1.67;;;;;;;;;;5032102;28;20025;-64
2021/08/19 12:11:04;;;;;;;3.53;1.60;;;;;;;;;;5034052;28;20025;-64
2021/08/19 12:13:30;;;;;;;3.47;1.42;;;;;;;;;;5034759;28;20392;-64
2021/08/19 12:15:57;;;;;;;4.45;1.88;;;;;;;;;;5033998;28;20030;-64
2021/08/19 12:18:23;;;;;;;2.53;1.65;;;;;;;;;;5022006;28;20603;-64
2021/08/19 12:20:50;;;;;;;4.07;1.85;;;;;;;;;;5039838;28;20033;-64
2021/08/19 12:23:16;;;;;;;6.82;1.58;;;;;;;;;;5032842;28;20551;-64
2021/08/19 12:25:42;;;;;;;3.67;1.52;;;;;;;;;;5031592;28;20053;-65
2021/08/19 12:28:09;;;;;;;3.33;1.77;;;;;;;;;;5032284;28;20036;-65
2021/08/19 12:30:35;;;;;;;3.10;1.80;;;;;;;;;;5017579;28;20482;-65
2021/08/19 12:33:07;;;;;;;3.20;1.50;;;;;;;;;;5032334;28;20055;-65
2021/08/19 12:35:33;;;;;;;4.07;1.83;;;;;;;;;;5029811;28;20143;-65
2021/08/19 12:37:59;;;;;;;4.90;1.70;;;;;;;;;;5031736;28;20017;-64
2021/08/19 12:40:30;;;;;;;4.07;1.60;;;;;;;;;;5039237;28;20396;-65
2021/08/19 12:43:04;;;;;;;5.97;1.70;;;;;;;;;;5040643;28;20040;-66
2021/08/19 12:45:30;;;;;;;2.85;1.58;;;;;;;;;;5032477;28;20037;-65
2021/08/19 12:48:00;;;;;;;3.60;1.60;;;;;;;;;;5037137;28;20116;-66
2021/08/19 12:50:26;;;;;;;3.42;1.52;;;;;;;;;;5036603;28;20029;-66
2021/08/19 12:52:52;;;;;;;5.22;1.90;;;;;;;;;;5037676;28;20070;-65
2021/08/19 12:55:19;;;;;;;3.90;1.80;;;;;;;;;;5036494;28;20385;-65
2021/08/19 12:57:49;;;;;;;3.53;1.70;;;;;;;;;;5031259;28;20028;-65
2021/08/19 13:00:16;;;;;;;3.90;1.80;;;;;;;;;;5035702;28;20488;-65
2021/08/19 13:02:43;;;;;;;2.70;1.73;;;;;;;;;;5032900;28;20072;-65
2021/08/19 13:05:09;;;;;;;3.80;1.80;;;;;;;;;;5043841;28;20044;-65
2021/08/19 13:07:36;;;;;;;4.30;2.17;;;;;;;;;;5040573;28;20094;-65
2021/08/19 13:10:02;;;;;;;3.70;1.60;;;;;;;;;;5042594;28;20025;-66
2021/08/19 13:12:28;;;;;;;4.25;1.98;;;;;;;;;;5044722;28;20029;-65
2021/08/19 13:14:55;;;;;;;6.20;2.00;;;;;;;;;;5033328;28;20049;-65
2021/08/19 13:17:22;;;;;;;4.75;1.95;;;;;;;;;;5046084;28;20017;-66
2021/08/19 13:19:48;;;;;;;3.85;1.80;;;;;;;;;;5033264;28;20033;-66
2021/08/19 13:22:15;;;;;;;2.97;1.70;;;;;;;;;;5041149;28;20075;-65
2021/08/19 13:24:41;;;;;;;3.67;1.80;;;;;;;;;;5042826;28;20516;-65
2021/08/19 13:27:08;;;;;;;4.97;2.00;;;;;;;;;;5045066;28;20447;-65
2021/08/19 13:29:34;;;;;;;3.90;2.17;;;;;;;;;;5045693;28;20055;-65
2021/08/19 13:32:00;;;;;;;4.97;2.00;;;;;;;;;;5030258;28;20029;-65
2021/08/19 13:34:26;;;;;;;6.75;2.20;;;;;;;;;;5036633;28;20033;-66
2021/08/19 13:36:52;;;;;;;2.95;1.80;;;;;;;;;;5033727;28;20040;-65
2021/08/19 13:39:18;;;;;;;3.72;1.77;;;;;;;;;;5033447;28;20064;-66
2021/08/19 13:41:44;;;;;;;3.80;1.90;;;;;;;;;;5047322;28;20056;-66
2021/08/19 13:44:10;;;;;;;3.58;1.80;;;;;;;;;;5040845;28;20073;-65
2021/08/19 13:46:36;;;;;;;3.53;1.60;;;;;;;;;;5045800;28;20055;-65
2021/08/19 13:49:02;;;;;;;3.05;1.80;;;;;;;;;;5043495;28;20021;-65
2021/08/19 13:51:28;;;;;;;5.63;2.03;;;;;;;;;;5046700;28;20029;-65
2021/08/19 13:53:54;;;;;;;4.18;1.90;;;;;;;;;;5039987;28;20469;-65
2021/08/19 13:56:20;;;;;;;6.88;2.10;;;;;;;;;;5040254;28;20028;-65
2021/08/19 13:58:46;;;;;;;6.88;2.08;;;;;;;;;;5042474;28;20527;-65
2021/08/19 14:01:12;;;;;;;4.60;2.08;;;;;;;;;;5042702;28;20049;-65
2021/08/19 14:03:38;;;;;;;5.18;2.00;;;;;;;;;;5045494;28;20075;-65
2021/08/19 14:06:04;;;;;;;4.63;1.90;;;;;;;;;;5049851;28;20049;-65
2021/08/19 14:08:30;;;;;;;5.18;2.20;;;;;;;;;;5050820;28;20028;-65
2021/08/19 14:10:56;;;;;;;5.40;2.05;;;;;;;;;;5050328;28;20029;-65
2021/08/19 14:13:22;;;;;;;3.28;1.80;;;;;;;;;;5042761;28;20036;-65
2021/08/19 14:15:48;;;;;;;4.03;2.20;;;;;;;;;;5043828;28;20087;-65
2021/08/19 14:18:14;;;;;;;8.10;2.10;;;;;;;;;;5038453;28;20497;-64
2021/08/19 14:20:40;;;;;;;3.92;2.03;;;;;;;;;;5050473;28;20438;-65
2021/08/19 14:23:06;;;;;;;4.05;1.83;;;;;;;;;;5042772;28;20492;-65
2021/08/19 14:25:32;;;;;;;3.10;1.80;;;;;;;;;;5038394;28;20132;-65
2021/08/19 14:27:58;;;;;;;5.93;2.22;;;;;;;;;;5030334;28;20067;-65
2021/08/19 14:30:24;;;;;;;4.68;1.77;;;;;;;;;;5043724;28;20481;-64
2021/08/19 14:32:50;;;;;;;3.50;1.92;;;;;;;;;;5036477;28;20026;-65
2021/08/19 14:35:16;;;;;;;4.35;2.20;;;;;;;;;;5042247;28;20028;-65
2021/08/19 14:37:42;;;;;;;5.13;1.80;;;;;;;;;;5041016;28;20033;-64
2021/08/19 14:40:09;;;;;;;4.00;1.90;;;;;;;;;;5046151;28;20017;-65